Pomona, Missouri
Current Conditions -  °F | °C
As of 11:53 PM on Monday 26 Jan 2015 (Local Time) from KUNO Reporting Station
Clear Clear  
Wind Chill: 42°   Ceiling: Unl
Heat Index: 46°   Visibility: 10mi
Dew Point: 34°   Wind: 8mph
Humidity: 63%   Direction: 320°NW
Pressure: 29.95"   Gusts: NA
Location:  36.87°N, 91.91°W
Report Text: KUNO 270553Z AUTO 32007KT 10SM CLR 08/01 A2995 RMK AO2 SLP145 T00780011 10100 20067 401220000 50002
Loading
Personal Weather Stations






























Interactive Weather Map New forecast layout! Learn more

10-Day Weather Forecast

Advertisements
Track Severe Weather on mobile